Time;durP1;ratioP1;P1;durP2;ratioP2;P2;SDS_P1;SDS_P2;PMS_P1;PMS_P2;Temp;Humidity;BMP_temperature;BMP_pressure;BME280_temperature;BME280_humidity;BME280_pressure;Samples;Min_cycle;Max_cycle;Signal;HPM_P1;HPM_P2
2022/05/14 00:01:09;;;;;;;3.38;1.52;;;20.30;50.30;;;;;;5074483;28;20514;-65
2022/05/14 00:03:34;;;;;;;3.45;1.67;;;20.30;50.40;;;;;;5074150;28;20174;-65
2022/05/14 00:06:03;;;;;;;3.85;1.92;;;20.30;50.40;;;;;;5073698;28;20234;-63
2022/05/14 00:08:28;;;;;;;5.07;1.80;;;20.30;50.40;;;;;;5074407;28;20257;-64
2022/05/14 00:13:39;;;;;;;4.43;1.50;;;20.20;50.30;;;;;;5073383;28;20173;-65
2022/05/14 00:16:05;;;;;;;3.83;1.70;;;20.30;50.40;;;;;;5074272;28;20218;-65
2022/05/14 00:18:30;;;;;;;3.38;1.55;;;20.20;50.30;;;;;;5074128;28;20176;-65
2022/05/14 00:20:55;;;;;;;2.20;1.70;;;20.20;50.30;;;;;;5072940;28;20620;-65
2022/05/14 00:23:21;;;;;;;3.42;1.40;;;20.20;50.40;;;;;;5074310;28;20162;-65
2022/05/14 00:25:47;;;;;;;3.13;1.92;;;20.20;50.50;;;;;;5073905;28;20179;-65
2022/05/14 00:28:13;;;;;;;4.45;1.70;;;20.20;50.50;;;;;;5073562;28;20254;-65
2022/05/14 00:30:41;;;;;;;3.10;1.38;;;20.20;50.50;;;;;;5073801;28;20178;-64
2022/05/14 00:33:07;;;;;;;3.13;1.80;;;20.10;50.40;;;;;;5073132;28;20180;-65
2022/05/14 00:35:33;;;;;;;2.40;1.40;;;20.20;50.50;;;;;;5073808;28;20217;-65
2022/05/14 00:37:58;;;;;;;3.90;1.60;;;20.20;50.40;;;;;;5072493;28;20167;-64
2022/05/14 00:40:43;;;;;;;3.63;1.80;;;20.10;50.40;;;;;;5073237;28;20185;-64
2022/05/14 00:43:09;;;;;;;4.47;1.33;;;20.10;50.50;;;;;;5073804;28;20629;-64
2022/05/14 00:45:36;;;;;;;2.85;1.65;;;20.10;50.40;;;;;;5073501;28;20183;-65
2022/05/14 00:48:02;;;;;;;3.60;1.65;;;20.10;50.30;;;;;;5071900;28;20174;-65
2022/05/14 00:50:37;;;;;;;1.63;1.42;;;20.10;50.40;;;;;;5072570;28;20174;-64
2022/05/14 00:53:12;;;;;;;2.15;1.48;;;20.10;50.40;;;;;;5072672;28;20185;-65
2022/05/14 00:55:38;;;;;;;2.28;1.50;;;20.10;50.50;;;;;;5071167;28;20202;-65
2022/05/14 00:58:04;;;;;;;1.98;1.48;;;20.10;50.50;;;;;;5072156;28;20178;-65
2022/05/14 01:00:30;;;;;;;3.38;1.67;;;20.10;50.50;;;;;;5072093;28;20213;-65
2022/05/14 01:02:55;;;;;;;2.30;1.63;;;20.00;50.50;;;;;;5072515;28;20595;-64
2022/05/14 01:05:21;;;;;;;2.58;1.70;;;20.00;50.50;;;;;;5073288;28;20279;-64
2022/05/14 01:07:49;;;;;;;2.83;1.73;;;20.00;50.40;;;;;;5071864;28;20182;-64
2022/05/14 01:10:16;;;;;;;3.63;1.80;;;20.00;50.50;;;;;;5071241;28;20271;-64
2022/05/14 01:12:46;;;;;;;2.00;1.42;;;20.00;50.60;;;;;;5072912;28;20187;-65
2022/05/14 01:15:14;;;;;;;3.38;1.80;;;20.00;50.50;;;;;;5070948;28;20213;-66
2022/05/14 01:17:40;;;;;;;3.00;2.00;;;20.00;50.60;;;;;;5073029;28;20198;-65
2022/05/14 01:20:07;;;;;;;4.18;1.60;;;20.00;50.60;;;;;;5073331;28;20170;-65
2022/05/14 01:22:34;;;;;;;3.03;1.98;;;20.00;50.60;;;;;;5072145;28;20178;-65
2022/05/14 01:28:08;;;;;;;7.65;2.28;;;20.00;50.70;;;;;;5073144;28;20268;-65
2022/05/14 01:30:33;;;;;;;2.67;1.70;;;20.00;50.70;;;;;;5070812;28;20620;-65
2022/05/14 01:33:04;;;;;;;2.60;1.80;;;19.90;50.60;;;;;;5072634;28;20269;-65
2022/05/14 01:35:33;;;;;;;4.00;1.73;;;20.00;50.70;;;;;;5072967;28;20246;-65
2022/05/14 01:37:59;;;;;;;3.72;1.63;;;20.00;50.80;;;;;;5071623;28;20620;-65
2022/05/14 01:40:24;;;;;;;2.85;1.85;;;20.00;50.80;;;;;;5072661;28;20174;-65
2022/05/14 01:42:50;;;;;;;3.45;1.85;;;19.90;50.80;;;;;;5072089;28;20167;-65
2022/05/14 01:45:15;;;;;;;2.55;1.92;;;19.90;50.80;;;;;;5072166;28;20220;-65
2022/05/14 01:47:41;;;;;;;3.15;1.60;;;19.90;50.80;;;;;;5072299;28;20178;-65
2022/05/14 01:50:07;;;;;;;3.08;1.75;;;19.90;50.90;;;;;;5072234;28;20231;-65
2022/05/14 01:52:33;;;;;;;3.15;1.65;;;19.90;50.90;;;;;;5071599;28;20578;-65
2022/05/14 01:54:58;;;;;;;3.78;1.98;;;19.90;50.90;;;;;;5071920;28;20206;-65
2022/05/14 01:57:24;;;;;;;2.28;1.35;;;19.90;51.00;;;;;;5071696;28;20253;-66
2022/05/14 01:59:49;;;;;;;2.28;2.00;;;19.90;50.90;;;;;;5071746;28;20190;-65
2022/05/14 02:02:15;;;;;;;2.08;1.63;;;19.90;50.90;;;;;;5072065;28;20533;-65
2022/05/14 02:04:40;;;;;;;2.92;2.28;;;19.90;50.90;;;;;;5071128;28;20237;-64
2022/05/14 02:07:06;;;;;;;4.45;1.85;;;19.90;51.00;;;;;;5072250;28;20175;-65
2022/05/14 02:09:31;;;;;;;2.35;1.40;;;19.90;51.00;;;;;;5072057;28;20235;-64
2022/05/14 02:11:57;;;;;;;4.10;2.00;;;19.90;51.10;;;;;;5071198;28;20240;-65
2022/05/14 02:14:22;;;;;;;2.55;1.40;;;19.90;51.10;;;;;;5072119;28;20448;-65
2022/05/14 02:16:48;;;;;;;4.10;1.88;;;19.80;51.20;;;;;;5071631;28;20206;-65
2022/05/14 02:19:13;;;;;;;3.00;1.67;;;19.90;51.30;;;;;;5071385;28;20311;-65
2022/05/14 02:21:39;;;;;;;2.55;1.90;;;19.80;51.20;;;;;;5072197;28;20186;-65
2022/05/14 02:24:04;;;;;;;5.95;2.30;;;19.90;51.30;;;;;;5072856;28;20197;-65
2022/05/14 02:26:30;;;;;;;3.85;1.90;;;19.80;51.30;;;;;;5072262;28;20617;-65
2022/05/14 02:28:56;;;;;;;2.97;1.80;;;19.80;51.20;;;;;;5072663;28;20269;-65
2022/05/14 02:31:21;;;;;;;2.17;1.45;;;19.80;51.30;;;;;;5072917;28;20255;-65
2022/05/14 02:33:47;;;;;;;3.13;1.77;;;19.80;51.30;;;;;;5071888;28;20210;-65
2022/05/14 02:36:13;;;;;;;2.65;1.70;;;19.80;51.40;;;;;;5072490;28;20289;-64
2022/05/14 02:38:38;;;;;;;2.47;1.60;;;19.80;51.50;;;;;;5072342;28;20181;-65
2022/05/14 02:41:04;;;;;;;2.60;1.85;;;19.80;51.50;;;;;;5071998;28;20174;-65
2022/05/14 02:43:32;;;;;;;3.63;1.95;;;19.80;51.60;;;;;;5072761;28;20181;-64
2022/05/14 02:45:58;;;;;;;2.75;1.45;;;19.80;51.50;;;;;;5072382;28;20174;-65
2022/05/14 02:48:23;;;;;;;3.33;1.98;;;19.80;51.60;;;;;;5071988;28;20182;-65
2022/05/14 02:50:49;;;;;;;2.95;1.70;;;19.80;51.60;;;;;;5072293;28;20178;-65
2022/05/14 02:53:14;;;;;;;2.08;1.73;;;19.70;51.60;;;;;;5072598;28;20174;-65
2022/05/14 02:55:40;;;;;;;2.08;1.60;;;19.70;51.60;;;;;;5071444;28;20625;-65
2022/05/14 02:58:05;;;;;;;2.90;1.98;;;19.70;51.60;;;;;;5072516;28;20637;-66
2022/05/14 03:00:31;;;;;;;2.90;1.88;;;19.70;51.60;;;;;;5072082;28;20190;-65
2022/05/14 03:02:56;;;;;;;4.20;1.83;;;19.70;51.70;;;;;;5071491;28;20183;-65
2022/05/14 03:05:22;;;;;;;4.05;1.70;;;19.70;51.70;;;;;;5072164;28;20321;-65
2022/05/14 03:07:48;;;;;;;3.60;1.50;;;19.70;51.70;;;;;;5071337;28;20174;-64
2022/05/14 03:10:14;;;;;;;3.83;1.92;;;19.70;51.70;;;;;;5072603;28;20232;-64
2022/05/14 03:12:39;;;;;;;2.47;1.92;;;19.70;51.80;;;;;;5072079;28;20265;-64
2022/05/14 03:15:06;;;;;;;3.38;1.77;;;19.70;51.70;;;;;;5071439;28;20746;-65
2022/05/14 03:17:34;;;;;;;2.80;1.88;;;19.70;51.80;;;;;;5072297;28;20220;-65
2022/05/14 03:20:07;;;;;;;3.00;2.00;;;19.70;51.80;;;;;;5072137;28;20167;-65
2022/05/14 03:22:34;;;;;;;3.05;1.83;;;19.60;51.80;;;;;;5071686;28;20171;-65
2022/05/14 03:24:59;;;;;;;2.83;1.55;;;19.60;51.80;;;;;;5072325;28;20178;-65
2022/05/14 03:27:25;;;;;;;3.88;1.90;;;19.60;51.80;;;;;;5072185;28;20174;-65
2022/05/14 03:29:51;;;;;;;2.28;1.70;;;19.60;51.80;;;;;;5071264;28;20534;-65
2022/05/14 03:32:16;;;;;;;2.25;1.90;;;19.60;51.90;;;;;;5072013;28;20417;-65
2022/05/14 03:34:42;;;;;;;2.45;1.63;;;19.60;52.50;;;;;;5071563;28;20163;-64
2022/05/14 03:37:07;;;;;;;2.55;1.60;;;19.60;51.90;;;;;;5071180;28;20194;-64
2022/05/14 03:39:33;;;;;;;4.35;1.80;;;19.60;51.90;;;;;;5072177;28;20190;-64
2022/05/14 03:41:58;;;;;;;2.45;1.60;;;19.60;51.90;;;;;;5071553;28;20579;-64
2022/05/14 03:44:24;;;;;;;3.28;1.95;;;19.60;52.00;;;;;;5071611;28;20258;-64
2022/05/14 03:46:49;;;;;;;2.67;1.50;;;19.60;51.90;;;;;;5071685;28;20686;-65
2022/05/14 03:49:15;;;;;;;4.30;1.80;;;19.60;51.90;;;;;;5071966;28;20200;-64
2022/05/14 03:51:41;;;;;;;2.35;1.67;;;19.60;52.00;;;;;;5071099;28;20182;-64
2022/05/14 03:54:06;;;;;;;2.83;1.77;;;19.60;51.90;;;;;;5071720;28;20186;-64
2022/05/14 03:56:39;;;;;;;1.75;1.50;;;19.50;51.90;;;;;;5071553;28;20655;-65
2022/05/14 03:59:05;;;;;;;3.58;1.85;;;19.60;51.90;;;;;;5071180;28;20175;-66
2022/05/14 04:01:31;;;;;;;2.58;1.63;;;19.50;51.80;;;;;;5072085;28;20182;-65
2022/05/14 04:03:56;;;;;;;3.03;1.50;;;19.50;51.80;;;;;;5070748;28;20166;-65
2022/05/14 04:06:22;;;;;;;2.72;1.63;;;19.60;51.90;;;;;;5071597;28;20230;-64
2022/05/14 04:08:47;;;;;;;2.92;1.80;;;19.50;51.80;;;;;;5070835;28;20584;-64
2022/05/14 04:11:13;;;;;;;2.38;1.45;;;19.50;51.70;;;;;;5071048;28;20285;-64
2022/05/14 04:13:38;;;;;;;1.88;1.40;;;19.50;51.70;;;;;;5074062;28;20166;-65
2022/05/14 04:16:04;;;;;;;4.72;1.77;;;19.50;51.80;;;;;;5075151;28;20213;-64
2022/05/14 04:18:29;;;;;;;3.75;1.73;;;19.50;51.80;;;;;;5074494;28;20516;-65
2022/05/14 04:20:57;;;;;;;2.88;1.95;;;19.50;51.90;;;;;;5075172;28;20270;-65
2022/05/14 04:23:23;;;;;;;2.63;1.42;;;19.50;51.90;;;;;;5075058;28;20604;-66
2022/05/14 04:25:50;;;;;;;2.88;1.80;;;19.50;51.80;;;;;;5074214;28;20166;-65
2022/05/14 04:28:15;;;;;;;4.43;1.83;;;19.50;51.80;;;;;;5075264;28;20554;-65
2022/05/14 04:30:41;;;;;;;4.28;2.40;;;19.50;51.80;;;;;;5074814;28;20173;-64
2022/05/14 04:33:06;;;;;;;2.67;1.95;;;19.50;51.80;;;;;;5074227;28;20235;-64
2022/05/14 04:35:32;;;;;;;4.28;1.75;;;19.50;51.80;;;;;;5074907;28;20581;-65
2022/05/14 04:37:57;;;;;;;2.30;1.63;;;19.50;51.80;;;;;;5074981;28;20205;-64
2022/05/14 04:40:23;;;;;;;2.20;1.60;;;19.50;51.70;;;;;;5074306;28;20657;-64
2022/05/14 04:42:49;;;;;;;4.65;1.73;;;19.50;51.80;;;;;;5074506;28;20276;-64
2022/05/14 04:45:15;;;;;;;4.82;2.25;;;19.50;51.70;;;;;;5074716;28;20177;-65
2022/05/14 04:47:41;;;;;;;1.98;1.67;;;19.50;51.70;;;;;;5073702;28;20582;-64
2022/05/14 04:50:07;;;;;;;3.33;1.40;;;19.50;51.70;;;;;;5074666;28;20257;-64
2022/05/14 04:52:32;;;;;;;2.28;1.50;;;19.50;51.70;;;;;;5074663;28;20178;-65
2022/05/14 04:54:58;;;;;;;3.47;1.63;;;19.50;51.70;;;;;;5073652;28;20184;-65
2022/05/14 04:57:23;;;;;;;3.83;2.03;;;19.50;51.70;;;;;;5074594;28;20528;-66
2022/05/14 04:59:49;;;;;;;2.75;2.05;;;19.50;51.80;;;;;;5074295;28;20171;-65
2022/05/14 05:04:59;;;;;;;3.42;1.90;;;19.50;51.80;;;;;;5074363;28;20279;-64
2022/05/14 05:07:24;;;;;;;2.25;1.50;;;19.50;51.80;;;;;;5074292;28;20179;-64
2022/05/14 05:09:50;;;;;;;3.28;1.70;;;19.50;51.70;;;;;;5074467;28;20174;-64
2022/05/14 05:12:15;;;;;;;4.65;1.92;;;19.50;51.80;;;;;;5075001;28;20241;-64
2022/05/14 05:14:41;;;;;;;3.38;1.65;;;19.50;51.80;;;;;;5073606;28;20181;-65
2022/05/14 05:17:07;;;;;;;1.83;1.48;;;19.50;51.70;;;;;;5074711;28;20214;-65
2022/05/14 05:19:33;;;;;;;3.90;1.88;;;19.50;51.70;;;;;;5074846;28;20175;-65
2022/05/14 05:21:58;;;;;;;4.13;1.75;;;19.50;51.80;;;;;;5073444;28;20178;-65
2022/05/14 05:24:24;;;;;;;1.85;1.60;;;19.50;51.80;;;;;;5074262;28;20170;-65
2022/05/14 05:26:49;;;;;;;1.77;1.60;;;19.50;51.80;;;;;;5074292;28;20533;-65
2022/05/14 05:29:15;;;;;;;3.50;1.75;;;19.50;51.80;;;;;;5073738;28;20181;-65
2022/05/14 05:31:41;;;;;;;2.63;1.85;;;19.50;51.90;;;;;;5074007;28;20174;-65
2022/05/14 05:34:07;;;;;;;2.80;1.63;;;19.50;51.90;;;;;;5074472;28;20178;-64
2022/05/14 05:36:32;;;;;;;1.73;1.55;;;19.50;51.90;;;;;;5073473;28;20206;-64
2022/05/14 05:38:58;;;;;;;2.28;1.70;;;19.50;51.90;;;;;;5074111;28;20175;-64
2022/05/14 05:41:23;;;;;;;4.57;1.75;;;19.50;51.90;;;;;;5074163;28;20538;-64
2022/05/14 05:43:49;;;;;;;2.92;1.85;;;19.50;51.90;;;;;;5073040;28;20166;-64
2022/05/14 05:46:15;;;;;;;3.17;1.85;;;19.50;52.00;;;;;;5074265;28;20179;-65
2022/05/14 05:48:40;;;;;;;5.10;2.13;;;19.40;52.00;;;;;;5073894;28;20166;-65
2022/05/14 05:51:06;;;;;;;5.05;1.70;;;19.50;52.00;;;;;;5073378;28;20261;-65
2022/05/14 05:59:00;;;;;;;2.42;1.58;;;19.50;52.10;;;;;;5073737;28;20170;-65
2022/05/14 06:01:25;;;;;;;2.25;1.77;;;19.50;52.10;;;;;;5073990;28;20170;-65
2022/05/14 06:03:51;;;;;;;3.38;1.60;;;19.50;52.20;;;;;;5072787;28;20171;-65
2022/05/14 06:06:17;;;;;;;2.83;1.80;;;19.60;52.30;;;;;;5073563;28;20241;-64
2022/05/14 06:08:43;;;;;;;2.75;1.85;;;19.60;52.30;;;;;;5073393;28;20223;-65
2022/05/14 06:11:08;;;;;;;2.40;1.55;;;19.60;52.40;;;;;;5072834;28;20170;-64
2022/05/14 06:13:34;;;;;;;3.38;1.90;;;19.60;52.40;;;;;;5073722;28;20319;-65
2022/05/14 06:16:00;;;;;;;2.50;1.77;;;19.60;52.30;;;;;;5073636;28;20327;-65
2022/05/14 06:18:26;;;;;;;2.67;1.77;;;19.60;52.30;;;;;;5072724;28;20174;-66
2022/05/14 06:20:51;;;;;;;9.23;2.28;;;19.60;52.20;;;;;;5073333;28;20170;-67
2022/05/14 06:23:17;;;;;;;4.72;1.90;;;19.60;52.30;;;;;;5073360;28;20227;-67
2022/05/14 06:25:43;;;;;;;6.03;2.60;;;19.60;52.20;;;;;;5072336;28;20673;-67
2022/05/14 06:28:08;;;;;;;7.38;2.22;;;19.50;52.00;;;;;;5073478;28;20181;-67
2022/05/14 06:30:35;;;;;;;6.60;2.83;;;19.50;52.10;;;;;;5073316;28;20534;-67
2022/05/14 06:33:04;;;;;;;6.88;2.45;;;19.50;52.00;;;;;;5072464;28;20199;-67
2022/05/14 06:35:33;;;;;;;4.90;2.47;;;19.60;52.00;;;;;;5072056;28;20598;-67
2022/05/14 06:37:59;;;;;;;7.32;2.55;;;19.60;52.00;;;;;;5072696;28;20178;-67
2022/05/14 06:40:24;;;;;;;5.88;2.25;;;19.60;51.90;;;;;;5072548;28;20178;-67
2022/05/14 06:42:50;;;;;;;4.88;2.40;;;19.60;51.90;;;;;;5072732;28;20178;-67
2022/05/14 06:45:16;;;;;;;7.85;2.45;;;19.60;51.90;;;;;;5073243;28;20700;-67
2022/05/14 06:47:41;;;;;;;6.47;2.25;;;19.60;51.90;;;;;;5072284;28;20232;-66
2022/05/14 06:50:07;;;;;;;7.10;2.65;;;19.60;51.90;;;;;;5072890;28;20170;-65
2022/05/14 06:52:33;;;;;;;6.90;2.55;;;19.60;51.90;;;;;;5073145;28;20229;-66
2022/05/14 06:54:59;;;;;;;5.30;2.55;;;19.60;51.90;;;;;;5070447;28;20177;-66
2022/05/14 06:57:24;;;;;;;6.65;3.13;;;19.60;51.90;;;;;;5073018;28;20178;-67
2022/05/14 06:59:50;;;;;;;5.03;2.28;;;19.60;51.90;;;;;;5070713;28;20181;-66
2022/05/14 07:02:15;;;;;;;7.53;2.55;;;19.70;52.00;;;;;;5072838;28;20203;-66
2022/05/14 07:07:25;;;;;;;5.72;2.92;;;19.70;52.20;;;;;;5072047;28;20520;-64
2022/05/14 07:09:52;;;;;;;8.20;3.38;;;19.70;52.20;;;;;;5072555;28;20167;-65
2022/05/14 07:12:19;;;;;;;8.63;3.10;;;19.70;52.20;;;;;;5072786;28;20185;-63
2022/05/14 07:14:45;;;;;;;6.63;3.15;;;19.70;52.40;;;;;;5071452;28;20547;-64
2022/05/14 07:17:10;;;;;;;5.50;2.50;;;19.70;52.50;;;;;;5072464;28;20210;-67
2022/05/14 07:19:37;;;;;;;8.43;3.08;;;19.80;52.60;;;;;;5072083;28;20261;-64
2022/05/14 07:22:02;;;;;;;8.32;2.25;;;19.80;52.70;;;;;;5071921;28;20257;-64
2022/05/14 07:24:28;;;;;;;10.63;2.85;;;19.80;52.60;;;;;;5072910;28;20205;-63
2022/05/14 07:26:55;;;;;;;8.00;2.38;;;19.80;52.50;;;;;;5072255;28;20236;-63
2022/05/14 07:29:22;;;;;;;4.97;2.50;;;19.90;52.60;;;;;;5071976;28;20178;-64
2022/05/14 07:31:48;;;;;;;4.47;2.33;;;19.90;52.60;;;;;;5072419;28;20198;-62
2022/05/14 07:34:13;;;;;;;5.70;2.72;;;19.90;52.50;;;;;;5072407;28;20198;-63
2022/05/14 07:36:58;;;;;;;9.90;2.78;;;19.90;52.50;;;;;;5071539;28;20640;-64
2022/05/14 07:39:25;;;;;;;9.00;3.00;;;20.00;52.80;;;;;;5071410;28;20194;-63
2022/05/14 07:41:53;;;;;;;7.47;2.63;;;20.00;52.70;;;;;;5072223;28;20183;-63
2022/05/14 07:44:19;;;;;;;5.30;2.42;;;20.00;52.60;;;;;;5072150;28;20178;-62
2022/05/14 07:46:44;;;;;;;7.88;2.55;;;20.00;52.80;;;;;;5072419;28;20217;-63
2022/05/14 07:49:11;;;;;;;6.43;3.03;;;20.00;52.90;;;;;;5074620;28;20214;-65
2022/05/14 07:51:37;;;;;;;5.85;2.30;;;20.00;52.90;;;;;;5076213;28;20171;-63
2022/05/14 07:54:03;;;;;;;8.20;3.20;;;20.00;53.00;;;;;;5076246;28;20186;-64
2022/05/14 07:56:29;;;;;;;5.60;2.63;;;20.00;53.00;;;;;;5073939;28;20210;-64
2022/05/14 07:58:54;;;;;;;5.53;2.42;;;20.10;53.10;;;;;;5075868;28;20209;-65
2022/05/14 08:01:20;;;;;;;7.63;2.50;;;20.10;53.00;;;;;;5076144;28;20654;-64
2022/05/14 08:03:47;;;;;;;5.43;2.25;;;20.10;53.00;;;;;;5075258;28;20179;-63
2022/05/14 08:06:15;;;;;;;12.27;2.70;;;20.10;53.00;;;;;;5076050;28;20308;-64
2022/05/14 08:08:40;;;;;;;6.78;2.30;;;20.10;53.00;;;;;;5075866;28;20261;-64
2022/05/14 08:11:06;;;;;;;5.65;2.53;;;20.10;53.10;;;;;;5075287;28;20261;-64
2022/05/14 08:13:34;;;;;;;11.80;2.53;;;20.10;53.00;;;;;;5075712;28;20258;-65
2022/05/14 08:16:00;;;;;;;5.82;2.20;;;20.10;53.00;;;;;;5075428;28;20733;-64
2022/05/14 08:18:25;;;;;;;6.22;2.42;;;20.10;53.10;;;;;;5075037;28;20266;-64
2022/05/14 08:20:51;;;;;;;4.85;1.85;;;20.20;53.10;;;;;;5075735;28;20269;-64
2022/05/14 08:26:01;;;;;;;4.60;2.38;;;20.20;53.10;;;;;;5075092;28;20174;-65
2022/05/14 08:28:27;;;;;;;5.03;2.33;;;20.30;53.00;;;;;;5075610;28;20166;-64
2022/05/14 08:30:52;;;;;;;5.45;2.67;;;20.20;53.00;;;;;;5075588;28;20174;-64
2022/05/14 08:33:19;;;;;;;4.93;2.33;;;20.30;53.10;;;;;;5074732;28;20170;-64
2022/05/14 08:35:45;;;;;;;5.97;2.00;;;20.20;53.20;;;;;;5075153;28;20211;-64
2022/05/14 08:38:11;;;;;;;6.88;2.40;;;20.20;53.20;;;;;;5075562;28;20170;-65
2022/05/14 08:40:55;;;;;;;4.22;2.00;;;20.20;53.20;;;;;;5075043;28;20659;-64
2022/05/14 08:43:42;;;;;;;3.22;1.90;;;20.30;53.10;;;;;;5075423;28;20194;-66
2022/05/14 08:46:17;;;;;;;4.40;2.30;;;20.30;53.90;;;;;;5073611;28;20178;-64
2022/05/14 08:48:43;;;;;;;4.97;2.58;;;20.30;53.30;;;;;;5074849;28;20186;-64
2022/05/14 08:51:15;;;;;;;3.47;2.08;;;20.30;53.30;;;;;;5086324;28;20227;-65
2022/05/14 08:53:41;;;;;;;6.20;2.13;;;20.20;53.20;;;;;;5093202;28;20173;-65
2022/05/14 08:56:25;;;;;;;3.72;2.22;;;20.20;53.30;;;;;;5095566;28;20215;-65
2022/05/14 08:58:56;;;;;;;6.00;2.55;;;20.30;53.90;;;;;;5094378;28;20168;-63
2022/05/14 09:01:24;;;;;;;5.90;2.47;;;20.30;53.40;;;;;;5094554;28;20224;-65
2022/05/14 09:03:50;;;;;;;5.13;2.28;;;20.30;53.50;;;;;;5094727;28;20169;-66
2022/05/14 09:06:15;;;;;;;5.68;2.33;;;20.30;53.40;;;;;;5094718;28;20226;-67
2022/05/14 09:08:41;;;;;;;5.60;2.25;;;20.40;53.30;;;;;;5094616;28;20172;-67
2022/05/14 09:11:16;;;;;;;5.55;1.90;;;20.40;53.30;;;;;;5094915;28;20169;-68
2022/05/14 09:13:54;;;;;;;5.15;2.10;;;20.50;53.30;;;;;;5093539;28;20505;-67
2022/05/14 09:16:26;;;;;;;5.63;2.03;;;20.60;53.30;;;;;;5094869;28;20283;-67
2022/05/14 09:18:53;;;;;;;5.97;2.13;;;20.50;53.30;;;;;;5094835;28;20182;-66
2022/05/14 09:21:30;;;;;;;6.50;2.22;;;20.50;53.30;;;;;;5094357;28;20180;-67
2022/05/14 09:24:04;;;;;;;5.50;3.00;;;20.60;53.20;;;;;;5094621;28;20183;-66
2022/05/14 09:26:33;;;;;;;3.92;1.92;;;20.60;53.20;;;;;;5093197;28;20204;-66
2022/05/14 09:29:21;;;;;;;5.05;2.53;;;20.70;53.20;;;;;;5093623;28;20690;-67
2022/05/14 09:31:53;;;;;;;4.15;2.10;;;20.70;53.10;;;;;;5093379;28;20205;-66
2022/05/14 09:34:19;;;;;;;4.07;1.80;;;20.70;53.00;;;;;;5094611;28;20587;-67
2022/05/14 09:36:48;;;;;;;5.95;2.75;;;20.70;53.20;;;;;;5093455;28;20213;-67
2022/05/14 09:39:18;;;;;;;5.53;1.95;;;20.70;53.00;;;;;;5094534;28;20194;-67
2022/05/14 09:41:56;;;;;;;3.65;2.03;;;20.70;53.00;;;;;;5093640;28;20176;-66
2022/05/14 09:44:24;;;;;;;5.97;2.20;;;20.70;52.90;;;;;;5094733;28;20538;-66
2022/05/14 09:46:50;;;;;;;5.03;2.00;;;20.70;53.10;;;;;;5094003;28;20174;-65
2022/05/14 09:49:25;;;;;;;6.43;2.45;;;20.80;53.10;;;;;;5093582;28;20192;-65
2022/05/14 09:51:55;;;;;;;5.68;2.30;;;20.80;52.90;;;;;;5093958;28;20176;-65
2022/05/14 09:54:22;;;;;;;5.55;2.47;;;20.80;53.00;;;;;;5094557;28;20178;-66
2022/05/14 09:57:21;;;;;;;3.65;2.08;;;20.80;53.00;;;;;;5093262;28;20210;-67
2022/05/14 10:00:10;;;;;;;5.88;2.15;;;20.90;52.90;;;;;;5093895;28;20178;-66
2022/05/14 10:02:42;;;;;;;4.35;2.30;;;20.80;52.90;;;;;;5093198;28;20536;-66
2022/05/14 10:05:09;;;;;;;6.32;2.20;;;20.80;53.00;;;;;;5093961;28;20221;-68
2022/05/14 10:07:51;;;;;;;8.88;2.75;;;20.90;53.30;;;;;;5092938;28;20227;-68
2022/05/14 10:10:55;;;;;;;8.85;2.47;;;20.90;52.60;;;;;;5092261;28;20609;-69
2022/05/14 10:13:43;;;;;;;5.97;2.00;;;20.90;53.00;;;;;;5092944;28;20181;-68
2022/05/14 10:16:38;;;;;;;4.53;1.85;;;20.80;53.00;;;;;;5094001;28;20300;-67
2022/05/14 10:19:10;;;;;;;2.80;1.95;;;20.90;52.90;;;;;;5091140;28;20182;-68
2022/05/14 10:21:35;;;;;;;6.45;2.70;;;20.90;53.00;;;;;;5092446;28;20182;-67
2022/05/14 10:27:09;;;;;;;5.57;2.20;;;20.70;53.10;;;;;;5092386;28;20180;-68
2022/05/14 10:29:53;;;;;;;7.45;2.60;;;20.80;53.20;;;;;;5093197;28;20174;-64
2022/05/14 10:32:19;;;;;;;5.18;2.33;;;20.90;53.10;;;;;;5091809;28;20177;-64
2022/05/14 10:34:52;;;;;;;6.30;2.25;;;21.00;52.90;;;;;;5093117;28;20211;-63
2022/05/14 10:37:45;;;;;;;7.13;2.50;;;21.10;52.80;;;;;;5093233;28;20209;-64
2022/05/14 10:40:24;;;;;;;8.65;2.53;;;21.00;52.90;;;;;;5092363;28;20245;-65
2022/05/14 10:42:52;;;;;;;6.80;2.30;;;21.00;53.00;;;;;;5091974;28;20181;-64
2022/05/14 10:45:22;;;;;;;7.53;2.72;;;20.90;53.10;;;;;;5092572;28;20201;-64
2022/05/14 10:48:34;;;;;;;9.73;2.63;;;20.90;53.30;;;;;;5092988;28;20648;-65
2022/05/14 10:50:59;;;;;;;6.88;2.38;;;21.00;53.10;;;;;;5076929;28;20185;-65
2022/05/14 10:53:25;;;;;;;7.97;2.30;;;20.90;53.20;;;;;;5091286;28;20170;-64
2022/05/14 10:56:10;;;;;;;7.90;2.80;;;20.90;53.30;;;;;;5092643;28;20541;-67
2022/05/14 10:58:58;;;;;;;6.95;2.03;;;20.90;53.40;;;;;;5091706;28;20223;-67
2022/05/14 11:01:36;;;;;;;6.90;2.78;;;20.90;53.40;;;;;;5092136;28;20181;-67
2022/05/14 11:04:18;;;;;;;5.72;2.38;;;20.90;53.50;;;;;;5093109;28;20643;-66
2022/05/14 11:06:48;;;;;;;6.38;2.53;;;21.10;53.50;;;;;;5091994;28;20194;-66
2022/05/14 11:09:18;;;;;;;5.88;2.00;;;21.10;53.40;;;;;;5093201;28;20170;-66
2022/05/14 11:11:53;;;;;;;7.97;2.35;;;21.00;53.20;;;;;;5092900;28;20531;-67
2022/05/14 11:14:19;;;;;;;6.53;2.28;;;21.00;53.40;;;;;;5091270;28;20165;-67
2022/05/14 11:16:49;;;;;;;4.63;2.03;;;21.10;53.40;;;;;;5092665;28;20676;-67
2022/05/14 11:19:29;;;;;;;6.97;2.58;;;21.20;53.20;;;;;;5091693;28;20174;-68
2022/05/14 11:21:55;;;;;;;5.75;2.20;;;21.30;53.10;;;;;;5094354;28;20671;-67
2022/05/14 11:24:38;;;;;;;4.40;2.13;;;21.30;53.00;;;;;;5099772;28;20181;-67
2022/05/14 11:27:04;;;;;;;5.22;2.17;;;21.30;52.80;;;;;;5097944;28;20177;-66
2022/05/14 11:29:33;;;;;;;5.22;2.25;;;21.30;53.10;;;;;;5099464;28;20170;-66
2022/05/14 11:32:08;;;;;;;5.43;2.17;;;21.30;53.10;;;;;;5098065;28;20272;-67
2022/05/14 11:34:34;;;;;;;5.90;2.05;;;21.20;53.10;;;;;;5097566;28;20639;-66
2022/05/14 11:37:01;;;;;;;6.15;2.53;;;21.30;53.20;;;;;;5098038;28;20290;-67
2022/05/14 11:39:29;;;;;;;4.13;1.95;;;21.30;53.00;;;;;;5098581;28;20301;-66
2022/05/14 11:42:07;;;;;;;6.00;1.80;;;21.30;52.90;;;;;;5097358;28;20255;-66
2022/05/14 11:44:42;;;;;;;4.18;2.00;;;21.40;52.90;;;;;;5098424;28;20632;-65
2022/05/14 11:47:36;;;;;;;6.65;2.20;;;21.30;53.00;;;;;;5098560;28;20241;-65
2022/05/14 11:50:03;;;;;;;3.20;1.85;;;21.40;52.70;;;;;;5097557;28;20173;-64
2022/05/14 11:52:36;;;;;;;4.60;1.95;;;21.50;53.30;;;;;;5099377;28;20645;-68
2022/05/14 11:55:22;;;;;;;5.45;2.45;;;21.50;52.50;;;;;;5098336;28;20246;-68
2022/05/14 11:57:53;;;;;;;5.95;1.67;;;21.60;52.50;;;;;;5098917;28;20289;-67
2022/05/14 12:00:21;;;;;;;6.07;2.42;;;21.70;52.40;;;;;;5098124;28;20173;-66
2022/05/14 12:02:59;;;;;;;5.45;1.92;;;21.60;52.30;;;;;;5098283;28;20234;-66
2022/05/14 12:05:56;;;;;;;5.28;1.92;;;21.70;52.30;;;;;;5098982;28;20687;-67
2022/05/14 12:08:24;;;;;;;3.30;1.85;;;21.70;52.20;;;;;;5098057;28;20209;-66
2022/05/14 12:10:54;;;;;;;6.60;2.35;;;21.70;52.00;;;;;;5098139;28;20180;-66
2022/05/14 12:13:31;;;;;;;4.15;1.83;;;21.70;52.00;;;;;;5099011;28;20272;-67
2022/05/14 12:16:00;;;;;;;4.25;2.00;;;21.70;52.10;;;;;;5098865;28;20228;-66
2022/05/14 12:18:25;;;;;;;4.75;1.98;;;21.60;52.10;;;;;;5097295;28;20201;-67
2022/05/14 12:21:01;;;;;;;4.47;1.92;;;21.60;52.10;;;;;;5097735;28;20193;-67
2022/05/14 12:23:43;;;;;;;4.28;2.00;;;21.60;52.20;;;;;;5097222;28;20177;-67
2022/05/14 12:26:32;;;;;;;5.72;2.78;;;21.60;51.90;;;;;;5098992;28;20184;-67
2022/05/14 12:28:59;;;;;;;6.30;2.15;;;21.60;52.00;;;;;;5098282;28;20695;-66
2022/05/14 12:34:13;;;;;;;6.05;2.92;;;21.40;52.10;;;;;;5094766;28;20177;-66
2022/05/14 12:36:50;;;;;;;5.15;2.10;;;21.60;51.90;;;;;;5095538;28;20205;-66
2022/05/14 12:39:23;;;;;;;5.05;2.22;;;21.70;51.70;;;;;;5088908;28;20181;-67
2022/05/14 12:41:54;;;;;;;5.15;2.25;;;21.70;51.50;;;;;;5094372;28;20262;-66
2022/05/14 12:44:25;;;;;;;6.22;2.20;;;21.80;51.50;;;;;;5077271;28;20170;-66
2022/05/14 12:46:54;;;;;;;4.80;2.10;;;21.80;51.30;;;;;;5095420;28;20170;-65
2022/05/14 12:49:24;;;;;;;8.50;2.25;;;21.90;51.30;;;;;;5095705;28;20205;-66
2022/05/14 12:51:59;;;;;;;7.53;2.47;;;21.90;51.10;;;;;;5093499;28;20185;-65
2022/05/14 12:54:30;;;;;;;4.85;2.53;;;22.00;51.10;;;;;;5095525;28;20177;-66
2022/05/14 12:56:58;;;;;;;6.57;2.63;;;22.00;51.00;;;;;;5094906;28;20214;-66
2022/05/14 12:59:23;;;;;;;5.22;2.40;;;22.00;50.90;;;;;;5093355;28;20177;-66
2022/05/14 13:01:51;;;;;;;6.53;2.55;;;22.00;51.10;;;;;;5093681;28;20170;-66
2022/05/14 13:04:18;;;;;;;7.25;2.83;;;21.90;51.30;;;;;;5094141;28;20174;-66
2022/05/14 13:06:45;;;;;;;6.13;2.80;;;21.80;51.40;;;;;;5093088;28;20226;-66
2022/05/14 13:09:10;;;;;;;4.15;2.72;;;21.70;51.50;;;;;;5095142;28;20178;-66
2022/05/14 13:11:43;;;;;;;5.97;2.65;;;21.70;51.50;;;;;;5093761;28;20231;-66
2022/05/14 13:14:21;;;;;;;4.13;2.35;;;21.70;51.50;;;;;;5093105;28;20226;-67
2022/05/14 13:16:58;;;;;;;5.97;2.80;;;21.60;51.60;;;;;;5093502;28;20270;-67
2022/05/14 13:19:37;;;;;;;6.50;2.40;;;21.60;51.70;;;;;;5093990;28;20227;-67